Terminal Aerodrome Forecast
Issued by NWS

Home | Current Version | Previous Version | Text Only | Print | Product List | Glossary On
Versions: 1 2 3 4 5 6 7 8 9 10 11 12
000
FTUS45 KABQ 062338
TAFLVS
TAF
KLVS 062338Z 0700/0724 17020G30KT P6SM BKN120
     FM070200 17014KT P6SM SCT100
     FM071400 21020G28KT P6SM SKC
     FM071700 23026G38KT P6SM FEW090=

USA.gov is the U.S. government's official web portal to all federal, state and local government web resources and services.